createdAt,value
2018-12-06T00:00:55.608Z,1008.93
2018-12-06T00:01:55.609Z,1008.91
2018-12-06T00:02:55.623Z,1008.91
2018-12-06T00:03:55.619Z,1008.91
2018-12-06T00:04:55.631Z,1008.89
2018-12-06T00:05:55.637Z,1008.91
2018-12-06T00:06:55.633Z,1008.88
2018-12-06T00:07:55.637Z,1008.88
2018-12-06T00:08:55.643Z,1008.87
2018-12-06T00:09:55.648Z,1008.86
2018-12-06T00:10:55.658Z,1008.85
2018-12-06T00:11:55.655Z,1008.84
2018-12-06T00:12:55.657Z,1008.90
2018-12-06T00:13:55.667Z,1008.88
2018-12-06T00:14:55.665Z,1008.88
2018-12-06T00:15:55.675Z,1008.91
2018-12-06T00:16:55.672Z,1008.97
2018-12-06T00:17:55.682Z,1008.90
2018-12-06T00:18:55.694Z,1008.90
2018-12-06T00:19:55.687Z,1008.86
2018-12-06T00:20:55.694Z,1008.91
2018-12-06T00:21:55.696Z,1008.93
2018-12-06T00:22:55.696Z,1008.92
2018-12-06T00:23:55.712Z,1008.95
2018-12-06T00:24:55.713Z,1008.92
2018-12-06T00:25:55.727Z,1008.95
2018-12-06T00:26:55.721Z,1008.97
2018-12-06T00:27:55.719Z,1008.98
2018-12-06T00:28:55.736Z,1008.97
2018-12-06T00:29:55.736Z,1008.95
2018-12-06T00:30:55.737Z,1008.97
2018-12-06T00:31:55.739Z,1008.96
2018-12-06T00:32:55.739Z,1008.99
2018-12-06T00:33:55.748Z,1009.00
2018-12-06T00:34:55.766Z,1009.02
2018-12-06T00:35:55.761Z,1009.02
2018-12-06T00:36:55.761Z,1009.01
2018-12-06T00:37:55.765Z,1008.97
2018-12-06T00:38:55.767Z,1008.97
2018-12-06T00:39:55.779Z,1008.99
2018-12-06T00:40:55.779Z,1009.02
2018-12-06T00:41:55.783Z,1009.00
2018-12-06T00:42:55.789Z,1008.99
2018-12-06T00:43:55.795Z,1008.98
2018-12-06T00:44:55.800Z,1008.99
2018-12-06T00:45:55.801Z,1008.96
2018-12-06T00:46:55.806Z,1008.98
2018-12-06T00:47:55.805Z,1009.01
2018-12-06T00:48:55.815Z,1009.03
2018-12-06T00:49:55.814Z,1008.99
2018-12-06T00:50:55.825Z,1009.03
2018-12-06T00:51:55.825Z,1009.04
2018-12-06T00:52:55.827Z,1009.07
2018-12-06T00:53:55.832Z,1009.02
2018-12-06T00:54:55.835Z,1009.05
2018-12-06T00:55:55.841Z,1009.06
2018-12-06T00:56:55.847Z,1009.02
2018-12-06T00:57:55.849Z,1008.99
2018-12-06T00:58:55.853Z,1009.00
2018-12-06T00:59:55.859Z,1009.02
2018-12-06T01:00:55.871Z,1009.01
2018-12-06T01:01:55.863Z,1009.03
2018-12-06T01:02:55.875Z,1009.03
2018-12-06T01:03:55.876Z,1009.04
2018-12-06T01:04:55.880Z,1009.05
2018-12-06T01:05:55.882Z,1009.04
2018-12-06T01:06:55.884Z,1009.06
2018-12-06T01:07:55.894Z,1009.07
2018-12-06T01:08:55.891Z,1009.05
2018-12-06T01:09:55.899Z,1009.08
2018-12-06T01:10:55.898Z,1009.06
2018-12-06T01:11:55.908Z,1009.01
2018-12-06T01:12:55.909Z,1008.99
2018-12-06T01:13:55.922Z,1008.97
2018-12-06T01:14:55.919Z,1008.96
2018-12-06T01:15:55.924Z,1008.99
2018-12-06T01:16:55.929Z,1009.00
2018-12-06T01:17:55.933Z,1008.99
2018-12-06T01:18:55.936Z,1008.95
2018-12-06T01:19:55.938Z,1008.92
2018-12-06T01:20:55.946Z,1008.90
2018-12-06T01:21:55.952Z,1008.87
2018-12-06T01:22:55.956Z,1008.90
2018-12-06T01:23:55.957Z,1008.91
2018-12-06T01:24:55.960Z,1008.88
2018-12-06T01:25:55.968Z,1008.85
2018-12-06T01:26:55.973Z,1008.82
2018-12-06T01:27:55.976Z,1008.86
2018-12-06T01:28:55.976Z,1008.84
2018-12-06T01:29:55.984Z,1008.81
2018-12-06T01:30:55.989Z,1008.85
2018-12-06T01:31:55.995Z,1008.81
2018-12-06T01:32:55.995Z,1008.80
2018-12-06T01:33:56.001Z,1008.82
2018-12-06T01:34:56.002Z,1008.80
2018-12-06T01:35:56.014Z,1008.80
2018-12-06T01:36:56.014Z,1008.81
2018-12-06T01:37:56.018Z,1008.79
2018-12-06T01:38:56.026Z,1008.78
2018-12-06T01:39:56.029Z,1008.79
2018-12-06T01:40:56.028Z,1008.76
2018-12-06T01:41:56.028Z,1008.75
2018-12-06T01:42:56.038Z,1008.77
2018-12-06T01:43:56.047Z,1008.75
2018-12-06T01:44:56.042Z,1008.75
2018-12-06T01:45:56.050Z,1008.73
2018-12-06T01:46:56.050Z,1008.78
2018-12-06T01:47:56.060Z,1008.79
2018-12-06T01:48:56.070Z,1008.76
2018-12-06T01:49:56.068Z,1008.74
2018-12-06T01:50:56.071Z,1008.72
2018-12-06T01:51:56.076Z,1008.79
2018-12-06T01:52:56.074Z,1008.78
2018-12-06T01:53:56.084Z,1008.78
2018-12-06T01:54:56.083Z,1008.74
2018-12-06T01:55:56.089Z,1008.76
2018-12-06T01:56:56.112Z,1008.77
2018-12-06T01:57:56.098Z,1008.75
2018-12-06T01:58:56.096Z,1008.75
2018-12-06T01:59:56.104Z,1008.75
2018-12-06T02:00:56.111Z,1008.72
2018-12-06T02:01:56.116Z,1008.76
2018-12-06T02:02:56.118Z,1008.73
2018-12-06T02:03:56.126Z,1008.70
2018-12-06T02:04:56.138Z,1008.70
2018-12-06T02:05:56.134Z,1008.65
2018-12-06T02:06:56.140Z,1008.62
2018-12-06T02:07:56.146Z,1008.64
2018-12-06T02:08:56.145Z,1008.65
2018-12-06T02:09:56.150Z,1008.61
2018-12-06T02:10:56.154Z,1008.64
2018-12-06T02:11:56.147Z,1008.58
2018-12-06T02:12:56.166Z,1008.65
2018-12-06T02:13:56.153Z,1008.63
2018-12-06T02:14:56.174Z,1008.61
2018-12-06T02:15:56.161Z,1008.59
2018-12-06T02:16:56.177Z,1008.60
2018-12-06T02:17:56.169Z,1008.59
2018-12-06T02:18:56.189Z,1008.61
2018-12-06T02:19:56.184Z,1008.59
2018-12-06T02:20:56.194Z,1008.56
2018-12-06T02:21:56.197Z,1008.55
2018-12-06T02:22:56.199Z,1008.56
2018-12-06T02:23:56.205Z,1008.57
2018-12-06T02:24:56.211Z,1008.53
2018-12-06T02:25:56.225Z,1008.55
2018-12-06T02:26:56.221Z,1008.59
2018-12-06T02:27:56.224Z,1008.56
2018-12-06T02:28:56.226Z,1008.58
2018-12-06T02:29:56.230Z,1008.59
2018-12-06T02:30:56.242Z,1008.54
2018-12-06T02:31:56.889Z,1008.54
2018-12-06T02:32:56.244Z,1008.54
2018-12-06T02:33:56.250Z,1008.56
2018-12-06T02:34:56.251Z,1008.52
2018-12-06T02:35:56.275Z,1008.54
2018-12-06T02:36:56.260Z,1008.56
2018-12-06T02:37:56.271Z,1008.51
2018-12-06T02:38:56.276Z,1008.52
2018-12-06T02:39:56.271Z,1008.53
2018-12-06T02:40:56.272Z,1008.51
2018-12-06T02:41:56.333Z,1008.48
2018-12-06T02:42:56.304Z,1008.50
2018-12-06T02:43:56.289Z,1008.48
2018-12-06T02:44:56.290Z,1008.45
2018-12-06T02:45:56.299Z,1008.42
2018-12-06T02:46:56.304Z,1008.45
2018-12-06T02:47:56.306Z,1008.45
2018-12-06T02:48:56.309Z,1008.36
2018-12-06T02:49:56.326Z,1008.42
2018-12-06T02:50:56.316Z,1008.39
2018-12-06T02:51:56.330Z,1008.38
2018-12-06T02:52:56.327Z,1008.36
2018-12-06T02:53:56.343Z,1008.37
2018-12-06T02:54:56.331Z,1008.36
2018-12-06T02:55:56.351Z,1008.34
2018-12-06T02:56:56.339Z,1008.35
2018-12-06T02:57:56.349Z,1008.38
2018-12-06T02:58:56.348Z,1008.35
2018-12-06T02:59:56.377Z,1008.31
2018-12-06T03:00:56.363Z,1008.33
2018-12-06T03:01:56.902Z,1008.33
2018-12-06T03:02:56.369Z,1008.32
2018-12-06T03:03:56.381Z,1008.30
2018-12-06T03:04:56.372Z,1008.30
2018-12-06T03:05:56.385Z,1008.31
2018-12-06T03:06:56.386Z,1008.31
2018-12-06T03:07:56.389Z,1008.27
2018-12-06T03:08:56.389Z,1008.30
2018-12-06T03:09:56.391Z,1008.30
2018-12-06T03:10:56.398Z,1008.30
2018-12-06T03:11:56.414Z,1008.33
2018-12-06T03:12:56.408Z,1008.33
2018-12-06T03:13:56.412Z,1008.31
2018-12-06T03:14:56.418Z,1008.33
2018-12-06T03:15:56.430Z,1008.30
2018-12-06T03:16:56.435Z,1008.33
2018-12-06T03:17:56.434Z,1008.29
2018-12-06T03:18:56.433Z,1008.31
2018-12-06T03:19:56.435Z,1008.29
2018-12-06T03:20:56.441Z,1008.32
2018-12-06T03:21:56.456Z,1008.28
2018-12-06T03:22:56.466Z,1008.28
2018-12-06T03:23:56.452Z,1008.29
2018-12-06T03:24:56.456Z,1008.27
2018-12-06T03:25:56.461Z,1008.29
2018-12-06T03:26:56.465Z,1008.27
2018-12-06T03:27:56.473Z,1008.23
2018-12-06T03:28:56.484Z,1008.24
2018-12-06T03:29:56.477Z,1008.26
2018-12-06T03:30:56.483Z,1008.23
2018-12-06T03:31:56.484Z,1008.24
2018-12-06T03:32:56.502Z,1008.27
2018-12-06T03:33:56.497Z,1008.25
2018-12-06T03:34:56.508Z,1008.33
2018-12-06T03:35:56.504Z,1008.30
2018-12-06T03:36:56.506Z,1008.32
2018-12-06T03:37:56.513Z,1008.29
2018-12-06T03:38:56.510Z,1008.29
2018-12-06T03:39:56.519Z,1008.28
2018-12-06T03:40:56.521Z,1008.31
2018-12-06T03:41:56.523Z,1008.32
2018-12-06T03:42:56.531Z,1008.29
2018-12-06T03:43:56.538Z,1008.31
2018-12-06T03:44:56.542Z,1008.33
2018-12-06T03:45:56.553Z,1008.38
2018-12-06T03:46:56.547Z,1008.38
2018-12-06T03:47:56.555Z,1008.39
2018-12-06T03:48:56.562Z,1008.42
2018-12-06T03:49:56.553Z,1008.44
2018-12-06T03:50:56.567Z,1008.42
2018-12-06T03:51:56.567Z,1008.41
2018-12-06T03:52:56.573Z,1008.41
2018-12-06T03:53:56.571Z,1008.42
2018-12-06T03:54:56.579Z,1008.42
2018-12-06T03:55:56.582Z,1008.39
2018-12-06T03:56:56.583Z,1008.38
2018-12-06T03:57:56.596Z,1008.42
2018-12-06T03:58:56.603Z,1008.42
2018-12-06T03:59:56.594Z,1008.46
2018-12-06T04:00:56.605Z,1008.51
2018-12-06T04:01:56.601Z,1008.47
2018-12-06T04:02:56.609Z,1008.47
2018-12-06T04:03:56.618Z,1008.46
2018-12-06T04:04:56.614Z,1008.46
2018-12-06T04:05:56.621Z,1008.44
2018-12-06T04:06:56.626Z,1008.48
2018-12-06T04:07:56.638Z,1008.47
2018-12-06T04:08:56.634Z,1008.46
2018-12-06T04:09:56.646Z,1008.46
2018-12-06T04:10:56.642Z,1008.46
2018-12-06T04:11:56.648Z,1008.46
2018-12-06T04:12:56.652Z,1008.47
2018-12-06T04:13:56.662Z,1008.44
2018-12-06T04:14:56.662Z,1008.41
2018-12-06T04:15:56.667Z,1008.45
2018-12-06T04:16:56.669Z,1008.39
2018-12-06T04:17:56.670Z,1008.38
2018-12-06T04:18:56.674Z,1008.38
2018-12-06T04:19:56.679Z,1008.40
2018-12-06T04:20:56.682Z,1008.39
2018-12-06T04:21:56.685Z,1008.42
2018-12-06T04:22:56.688Z,1008.40
2018-12-06T04:23:56.694Z,1008.43
2018-12-06T04:24:56.697Z,1008.48
2018-12-06T04:25:56.704Z,1008.40
2018-12-06T04:26:56.710Z,1008.42
2018-12-06T04:27:56.714Z,1008.35
2018-12-06T04:28:56.718Z,1008.39
2018-12-06T04:29:56.718Z,1008.40
2018-12-06T04:30:56.726Z,1008.47
2018-12-06T04:31:56.725Z,1008.44
2018-12-06T04:32:56.729Z,1008.47
2018-12-06T04:33:56.739Z,1008.51
2018-12-06T04:34:56.738Z,1008.55
2018-12-06T04:35:56.747Z,1008.54
2018-12-06T04:36:56.759Z,1008.58
2018-12-06T04:37:56.765Z,1008.58
2018-12-06T04:38:56.758Z,1008.63
2018-12-06T04:39:56.764Z,1008.65
2018-12-06T04:40:56.759Z,1008.65
2018-12-06T04:41:56.765Z,1008.69
2018-12-06T04:42:56.761Z,1008.72
2018-12-06T04:43:56.775Z,1008.76
2018-12-06T04:44:56.770Z,1008.71
2018-12-06T04:45:56.784Z,1008.70
2018-12-06T04:46:56.812Z,1008.69
2018-12-06T04:47:56.809Z,1008.70
2018-12-06T04:48:56.806Z,1008.71
2018-12-06T04:49:56.802Z,1008.67
2018-12-06T04:50:56.887Z,1008.69
2018-12-06T04:51:56.811Z,1008.67
2018-12-06T04:52:56.819Z,1008.65
2018-12-06T04:53:56.815Z,1008.68
2018-12-06T04:54:57.443Z,1008.69
2018-12-06T04:55:56.828Z,1008.70
2018-12-06T04:56:56.833Z,1008.70
2018-12-06T04:57:56.831Z,1008.68
2018-12-06T04:58:57.443Z,1008.68
2018-12-06T04:59:56.865Z,1008.77
2018-12-06T05:00:56.864Z,1008.78
2018-12-06T05:01:56.850Z,1008.81
2018-12-06T05:02:56.855Z,1008.84
2018-12-06T05:03:56.866Z,1008.83
2018-12-06T05:04:56.859Z,1008.87
2018-12-06T05:05:56.863Z,1008.86
2018-12-06T05:06:57.447Z,1008.84
2018-12-06T05:07:56.876Z,1008.84
2018-12-06T05:08:56.876Z,1008.86
2018-12-06T05:09:56.880Z,1008.85
2018-12-06T05:10:56.894Z,1008.84
2018-12-06T05:11:56.883Z,1008.86
2018-12-06T05:12:56.937Z,1008.87
2018-12-06T05:13:56.896Z,1008.88
2018-12-06T05:14:56.920Z,1008.88
2018-12-06T05:15:56.917Z,1008.89
2018-12-06T05:16:56.923Z,1008.87
2018-12-06T05:17:56.915Z,1008.90
2018-12-06T05:18:56.924Z,1008.91
2018-12-06T05:19:56.923Z,1008.88
2018-12-06T05:20:56.933Z,1008.92
2018-12-06T05:21:56.935Z,1008.90
2018-12-06T05:22:56.948Z,1008.95
2018-12-06T05:23:56.938Z,1008.96
2018-12-06T05:24:56.942Z,1008.95
2018-12-06T05:25:56.949Z,1008.96
2018-12-06T05:26:56.964Z,1008.96
2018-12-06T05:27:56.950Z,1009.03
2018-12-06T05:28:56.956Z,1008.98
2018-12-06T05:29:56.968Z,1009.03
2018-12-06T05:30:56.971Z,1008.96
2018-12-06T05:31:56.974Z,1008.98
2018-12-06T05:32:56.981Z,1009.01
2018-12-06T05:33:56.984Z,1009.01
2018-12-06T05:34:56.987Z,1008.99
2018-12-06T05:35:56.990Z,1008.99
2018-12-06T05:36:57.001Z,1009.02
2018-12-06T05:37:57.002Z,1009.02
2018-12-06T05:38:57.009Z,1009.00
2018-12-06T05:39:57.006Z,1009.04
2018-12-06T05:40:57.013Z,1009.03
2018-12-06T05:41:57.017Z,1008.98
2018-12-06T05:42:57.017Z,1008.98
2018-12-06T05:43:57.023Z,1009.02
2018-12-06T05:44:57.026Z,1009.01
2018-12-06T05:45:57.035Z,1009.07
2018-12-06T05:46:57.031Z,1009.10
2018-12-06T05:47:57.045Z,1009.12
2018-12-06T05:48:57.041Z,1009.11
2018-12-06T05:49:57.045Z,1009.09
2018-12-06T05:50:57.051Z,1009.08
2018-12-06T05:51:57.057Z,1009.08
2018-12-06T05:52:57.062Z,1009.12
2018-12-06T05:53:57.062Z,1009.14
2018-12-06T05:54:57.068Z,1009.17
2018-12-06T05:55:57.077Z,1009.18
2018-12-06T05:56:57.084Z,1009.18
2018-12-06T05:57:57.084Z,1009.18
2018-12-06T05:58:57.082Z,1009.15
2018-12-06T05:59:57.093Z,1009.16
2018-12-06T06:00:57.091Z,1009.15
2018-12-06T06:01:57.099Z,1009.15
2018-12-06T06:02:57.100Z,1009.19
2018-12-06T06:03:57.107Z,1009.23
2018-12-06T06:04:57.115Z,1009.31
2018-12-06T06:05:57.116Z,1009.34
2018-12-06T06:06:57.120Z,1009.33
2018-12-06T06:07:57.127Z,1009.36
2018-12-06T06:08:57.125Z,1009.34
2018-12-06T06:09:57.132Z,1009.35
2018-12-06T06:10:57.134Z,1009.36
2018-12-06T06:11:57.138Z,1009.38
2018-12-06T06:12:57.154Z,1009.38
2018-12-06T06:13:57.160Z,1009.36
2018-12-06T06:14:57.151Z,1009.34
2018-12-06T06:15:57.157Z,1009.37
2018-12-06T06:16:57.157Z,1009.38
2018-12-06T06:17:57.168Z,1009.38
2018-12-06T06:18:57.166Z,1009.38
2018-12-06T06:19:57.178Z,1009.38
2018-12-06T06:20:57.175Z,1009.41
2018-12-06T06:21:57.183Z,1009.41
2018-12-06T06:22:57.186Z,1009.45
2018-12-06T06:23:57.188Z,1009.42
2018-12-06T06:24:57.202Z,1009.45
2018-12-06T06:25:57.198Z,1009.42
2018-12-06T06:26:57.205Z,1009.41
2018-12-06T06:27:57.206Z,1009.42
2018-12-06T06:28:57.213Z,1009.40
2018-12-06T06:29:57.215Z,1009.44
2018-12-06T06:30:57.221Z,1009.38
2018-12-06T06:31:57.224Z,1009.37
2018-12-06T06:32:57.226Z,1009.38
2018-12-06T06:33:57.235Z,1009.35
2018-12-06T06:34:57.234Z,1009.38
2018-12-06T06:35:57.245Z,1009.39
2018-12-06T06:36:57.239Z,1009.39
2018-12-06T06:37:57.254Z,1009.42
2018-12-06T06:38:57.251Z,1009.41
2018-12-06T06:39:57.256Z,1009.41
2018-12-06T06:40:57.266Z,1009.47
2018-12-06T06:41:57.265Z,1009.53
2018-12-06T06:42:57.278Z,1009.54
2018-12-06T06:43:57.276Z,1009.56
2018-12-06T06:44:57.282Z,1009.62
2018-12-06T06:45:57.322Z,1009.62
2018-12-06T06:46:57.304Z,1009.62
2018-12-06T06:47:57.291Z,1009.62
2018-12-06T06:48:57.295Z,1009.61
2018-12-06T06:49:57.303Z,1009.67
2018-12-06T06:50:57.298Z,1009.64
2018-12-06T06:51:57.306Z,1009.69
2018-12-06T06:52:57.310Z,1009.74
2018-12-06T06:53:57.322Z,1009.79
2018-12-06T06:54:57.317Z,1009.80
2018-12-06T06:55:57.330Z,1009.92
2018-12-06T06:56:58.762Z,1009.92
2018-12-06T06:57:57.344Z,1009.92
2018-12-06T06:58:58.628Z,1009.92
2018-12-06T06:59:57.337Z,1009.99
2018-12-06T07:00:57.346Z,1009.95
2018-12-06T07:01:57.346Z,1009.95
2018-12-06T07:02:57.357Z,1009.97
2018-12-06T07:03:57.364Z,1010.02
2018-12-06T07:04:57.365Z,1010.00
2018-12-06T07:05:57.363Z,1009.98
2018-12-06T07:06:57.373Z,1010.00
2018-12-06T07:07:57.372Z,1010.06
2018-12-06T07:08:57.377Z,1010.03
2018-12-06T07:09:57.383Z,1010.05
2018-12-06T07:10:57.388Z,1010.06
2018-12-06T07:11:57.396Z,1010.08
2018-12-06T07:12:57.391Z,1010.10
2018-12-06T07:13:57.397Z,1010.11
2018-12-06T07:14:57.399Z,1010.15
2018-12-06T07:15:57.409Z,1010.22
2018-12-06T07:16:57.409Z,1010.24
2018-12-06T07:17:57.419Z,1010.23
2018-12-06T07:18:57.420Z,1010.26
2018-12-06T07:19:57.425Z,1010.30
2018-12-06T07:20:57.429Z,1010.24
2018-12-06T07:21:57.436Z,1010.26
2018-12-06T07:22:57.434Z,1010.25
2018-12-06T07:23:57.446Z,1010.22
2018-12-06T07:24:57.448Z,1010.18
2018-12-06T07:25:57.451Z,1010.18
2018-12-06T07:26:57.455Z,1010.20
2018-12-06T07:27:57.459Z,1010.27
2018-12-06T07:28:57.465Z,1010.29
2018-12-06T07:29:57.470Z,1010.36
2018-12-06T07:30:57.466Z,1010.37
2018-12-06T07:31:57.493Z,1010.37
2018-12-06T07:32:57.497Z,1010.33
2018-12-06T07:33:57.485Z,1010.30
2018-12-06T07:34:57.489Z,1010.28
2018-12-06T07:35:57.485Z,1010.29
2018-12-06T07:36:57.497Z,1010.28
2018-12-06T07:37:57.493Z,1010.32
2018-12-06T07:38:57.508Z,1010.38
2018-12-06T07:39:57.506Z,1010.44
2018-12-06T07:40:57.519Z,1010.45
2018-12-06T07:41:57.542Z,1010.43
2018-12-06T07:42:57.515Z,1010.42
2018-12-06T07:43:57.522Z,1010.42
2018-12-06T07:44:57.522Z,1010.42
2018-12-06T07:45:57.524Z,1010.39
2018-12-06T07:46:57.533Z,1010.44
2018-12-06T07:47:57.531Z,1010.48
2018-12-06T07:48:57.546Z,1010.47
2018-12-06T07:49:57.545Z,1010.44
2018-12-06T07:50:57.551Z,1010.44
2018-12-06T07:51:57.554Z,1010.47
2018-12-06T07:52:57.559Z,1010.49
2018-12-06T07:53:57.562Z,1010.53
2018-12-06T07:54:57.570Z,1010.57
2018-12-06T07:55:57.571Z,1010.56
2018-12-06T07:56:57.579Z,1010.57
2018-12-06T07:57:57.579Z,1010.60
2018-12-06T07:58:57.588Z,1010.59
2018-12-06T07:59:57.591Z,1010.60
2018-12-06T08:00:57.591Z,1010.56
2018-12-06T08:01:57.598Z,1010.60
2018-12-06T08:02:57.604Z,1010.58
2018-12-06T08:03:57.609Z,1010.58
2018-12-06T08:04:57.606Z,1010.59
2018-12-06T08:05:57.608Z,1010.56
2018-12-06T08:06:57.616Z,1010.61
2018-12-06T08:07:57.622Z,1010.58
2018-12-06T08:08:57.626Z,1010.63
2018-12-06T08:09:57.632Z,1010.67
2018-12-06T08:10:57.633Z,1010.75
2018-12-06T08:11:57.637Z,1010.75
2018-12-06T08:12:57.637Z,1010.77
2018-12-06T08:13:57.648Z,1010.69
2018-12-06T08:14:57.644Z,1010.70
2018-12-06T08:15:57.652Z,1010.70
2018-12-06T08:16:57.654Z,1010.71
2018-12-06T08:17:57.666Z,1010.71
2018-12-06T08:18:57.671Z,1010.72
2018-12-06T08:19:57.676Z,1010.75
2018-12-06T08:20:57.676Z,1010.78
2018-12-06T08:21:57.674Z,1010.73
2018-12-06T08:22:57.686Z,1010.75
2018-12-06T08:23:57.689Z,1010.71
2018-12-06T08:24:57.691Z,1010.71
2018-12-06T08:25:57.698Z,1010.67
2018-12-06T08:26:57.694Z,1010.72
2018-12-06T08:27:57.704Z,1010.72
2018-12-06T08:28:57.708Z,1010.73
2018-12-06T08:29:57.711Z,1010.77
2018-12-06T08:30:57.712Z,1010.76
2018-12-06T08:31:57.724Z,1010.75
2018-12-06T08:32:57.722Z,1010.72
2018-12-06T08:33:57.721Z,1010.78
2018-12-06T08:34:57.822Z,1010.78
2018-12-06T08:35:57.732Z,1010.76
2018-12-06T08:36:57.742Z,1010.72
2018-12-06T08:37:57.741Z,1010.66
2018-12-06T08:38:57.750Z,1010.67
2018-12-06T08:39:57.773Z,1010.65
2018-12-06T08:40:57.749Z,1010.69
2018-12-06T08:41:57.756Z,1010.73
2018-12-06T08:42:57.770Z,1010.71
2018-12-06T08:43:57.777Z,1010.77
2018-12-06T08:44:57.764Z,1010.72
2018-12-06T08:45:57.777Z,1010.72
2018-12-06T08:46:57.776Z,1010.66
2018-12-06T08:47:57.783Z,1010.69
2018-12-06T08:49:02.979Z,1010.66
2018-12-06T08:49:57.790Z,1010.67
2018-12-06T08:50:57.793Z,1010.70
2018-12-06T08:51:57.796Z,1010.73
2018-12-06T08:52:57.812Z,1010.82
2018-12-06T08:53:57.806Z,1010.80
2018-12-06T08:54:57.813Z,1010.84
2018-12-06T08:55:57.815Z,1010.79
2018-12-06T08:56:57.826Z,1010.79
2018-12-06T08:57:57.821Z,1010.82
2018-12-06T08:58:57.828Z,1010.86
2018-12-06T08:59:57.834Z,1010.90
2018-12-06T09:00:57.832Z,1010.92
2018-12-06T09:01:57.846Z,1010.94
2018-12-06T09:02:57.844Z,1010.90
2018-12-06T09:03:57.848Z,1010.85
2018-12-06T09:04:57.856Z,1010.84
2018-12-06T09:05:57.848Z,1010.84
2018-12-06T09:06:57.862Z,1010.85
2018-12-06T09:07:57.868Z,1010.90
2018-12-06T09:08:57.870Z,1010.92
2018-12-06T09:09:57.869Z,1010.95
2018-12-06T09:10:57.876Z,1010.99
2018-12-06T09:11:57.878Z,1010.98
2018-12-06T09:12:57.882Z,1010.99
2018-12-06T09:13:57.888Z,1011.04
2018-12-06T09:14:57.896Z,1011.04
2018-12-06T09:15:57.896Z,1011.08
2018-12-06T09:16:57.908Z,1011.10
2018-12-06T09:17:57.903Z,1011.10
2018-12-06T09:18:57.951Z,1011.06
2018-12-06T09:19:57.910Z,1011.06
2018-12-06T09:20:57.921Z,1010.99
2018-12-06T09:21:57.918Z,1010.92
2018-12-06T09:22:57.926Z,1010.96
2018-12-06T09:23:57.930Z,1010.91
2018-12-06T09:24:57.930Z,1010.95
2018-12-06T09:25:57.934Z,1010.91
2018-12-06T09:26:58.989Z,1010.89
2018-12-06T09:27:57.947Z,1010.86
2018-12-06T09:28:57.952Z,1010.89
2018-12-06T09:29:57.955Z,1010.85
2018-12-06T09:31:01.128Z,1010.82
2018-12-06T09:31:57.951Z,1010.85
2018-12-06T09:32:57.970Z,1010.84
2018-12-06T09:33:57.974Z,1010.80
2018-12-06T09:34:57.975Z,1010.76
2018-12-06T09:35:58.054Z,1010.76
2018-12-06T09:36:57.985Z,1010.71
2018-12-06T09:37:57.989Z,1010.65
2018-12-06T09:38:57.998Z,1010.62
2018-12-06T09:39:57.996Z,1010.61
2018-12-06T09:40:57.998Z,1010.60
2018-12-06T09:41:58.043Z,1010.55
2018-12-06T09:42:58.008Z,1010.56
2018-12-06T09:43:58.011Z,1010.61
2018-12-06T09:44:58.020Z,1010.64
2018-12-06T09:45:58.020Z,1010.67
2018-12-06T09:46:58.029Z,1010.73
2018-12-06T09:47:58.029Z,1010.77
2018-12-06T09:48:58.035Z,1010.85
2018-12-06T09:49:58.040Z,1010.88
2018-12-06T09:50:58.074Z,1010.95
2018-12-06T09:51:58.046Z,1011.01
2018-12-06T09:52:58.051Z,1010.99
2018-12-06T09:53:58.061Z,1011.00
2018-12-06T09:54:58.085Z,1011.02
2018-12-06T09:55:58.061Z,1011.00
2018-12-06T09:56:58.068Z,1011.02
2018-12-06T09:57:58.075Z,1011.07
2018-12-06T09:58:58.078Z,1011.16
2018-12-06T09:59:58.084Z,1011.19
2018-12-06T10:00:58.083Z,1011.20
2018-12-06T10:01:58.085Z,1011.23
2018-12-06T10:02:58.121Z,1011.21
2018-12-06T10:03:58.094Z,1011.22
2018-12-06T10:04:58.097Z,1011.26
2018-12-06T10:05:58.103Z,1011.27
2018-12-06T10:06:58.105Z,1011.25
2018-12-06T10:07:58.115Z,1011.22
2018-12-06T10:08:58.115Z,1011.29
2018-12-06T10:09:58.122Z,1011.27
2018-12-06T10:10:58.125Z,1011.28
2018-12-06T10:11:58.136Z,1011.32
2018-12-06T10:12:58.131Z,1011.29
2018-12-06T10:13:58.137Z,1011.27
2018-12-06T10:14:58.145Z,1011.28
2018-12-06T10:15:58.143Z,1011.32
2018-12-06T10:16:58.145Z,1011.36
2018-12-06T10:17:58.157Z,1011.36
2018-12-06T10:18:58.165Z,1011.37
2018-12-06T10:19:58.162Z,1011.37
2018-12-06T10:20:58.166Z,1011.36
2018-12-06T10:21:58.182Z,1011.37
2018-12-06T10:22:58.177Z,1011.36
2018-12-06T10:23:58.179Z,1011.32
2018-12-06T10:24:58.183Z,1011.32
2018-12-06T10:25:58.183Z,1011.31
2018-12-06T10:26:58.193Z,1011.25
2018-12-06T10:27:58.197Z,1011.26
2018-12-06T10:28:58.198Z,1011.28
2018-12-06T10:29:58.199Z,1011.28
2018-12-06T10:30:58.207Z,1011.28
2018-12-06T10:31:58.211Z,1011.29
2018-12-06T10:32:58.215Z,1011.34
2018-12-06T10:33:58.221Z,1011.41
2018-12-06T10:34:58.229Z,1011.38
2018-12-06T10:35:58.230Z,1011.42
2018-12-06T10:36:58.233Z,1011.39
2018-12-06T10:37:58.236Z,1011.40
2018-12-06T10:38:58.239Z,1011.41
2018-12-06T10:39:58.243Z,1011.38
2018-12-06T10:40:58.266Z,1011.37
2018-12-06T10:41:58.251Z,1011.36
2018-12-06T10:42:58.257Z,1011.33
2018-12-06T10:43:58.260Z,1011.41
2018-12-06T10:44:58.262Z,1011.33
2018-12-06T10:45:58.268Z,1011.34
2018-12-06T10:46:58.274Z,1011.34
2018-12-06T10:47:58.277Z,1011.37
2018-12-06T10:48:58.294Z,1011.40
2018-12-06T10:49:58.287Z,1011.42
2018-12-06T10:50:58.290Z,1011.45
2018-12-06T10:51:58.303Z,1011.45
2018-12-06T10:52:58.295Z,1011.44
2018-12-06T10:53:58.299Z,1011.41
2018-12-06T10:54:58.323Z,1011.42
2018-12-06T10:55:58.312Z,1011.43
2018-12-06T10:56:58.320Z,1011.44
2018-12-06T10:57:58.359Z,1011.44
2018-12-06T10:58:58.322Z,1011.41
2018-12-06T10:59:58.343Z,1011.40
2018-12-06T11:00:58.332Z,1011.41
2018-12-06T11:01:58.335Z,1011.41
2018-12-06T11:02:58.347Z,1011.42
2018-12-06T11:03:58.339Z,1011.42
2018-12-06T11:04:58.351Z,1011.43
2018-12-06T11:05:58.351Z,1011.42
2018-12-06T11:06:58.347Z,1011.36
2018-12-06T11:07:58.363Z,1011.37
2018-12-06T11:08:58.366Z,1011.32
2018-12-06T11:09:58.370Z,1011.35
2018-12-06T11:10:58.370Z,1011.34
2018-12-06T11:11:58.376Z,1011.35
2018-12-06T11:12:58.382Z,1011.33
2018-12-06T11:13:58.386Z,1011.36
2018-12-06T11:14:58.390Z,1011.32
2018-12-06T11:15:58.397Z,1011.31
2018-12-06T11:16:58.400Z,1011.28
2018-12-06T11:17:58.404Z,1011.25
2018-12-06T11:18:58.418Z,1011.21
2018-12-06T11:19:58.414Z,1011.24
2018-12-06T11:20:58.420Z,1011.21
2018-12-06T11:21:58.416Z,1011.21
2018-12-06T11:22:58.422Z,1011.21
2018-12-06T11:23:58.426Z,1011.18
2018-12-06T11:24:58.486Z,1011.15
2018-12-06T11:25:58.436Z,1011.20
2018-12-06T11:26:58.440Z,1011.20
2018-12-06T11:27:58.447Z,1011.24
2018-12-06T11:28:58.443Z,1011.23
2018-12-06T11:29:58.451Z,1011.30
2018-12-06T11:30:58.460Z,1011.26
2018-12-06T11:31:58.460Z,1011.25
2018-12-06T11:32:58.464Z,1011.25
2018-12-06T11:33:58.476Z,1011.25
2018-12-06T11:34:58.473Z,1011.29
2018-12-06T11:35:58.477Z,1011.32
2018-12-06T11:36:58.490Z,1011.29
2018-12-06T11:37:58.484Z,1011.31
2018-12-06T11:38:58.488Z,1011.30
2018-12-06T11:39:58.494Z,1011.28
2018-12-06T11:40:58.504Z,1011.32
2018-12-06T11:41:58.504Z,1011.34
2018-12-06T11:42:58.504Z,1011.31
2018-12-06T11:43:58.512Z,1011.35
2018-12-06T11:44:58.509Z,1011.31
2018-12-06T11:45:58.523Z,1011.30
2018-12-06T11:46:58.523Z,1011.31
2018-12-06T11:47:58.523Z,1011.34
2018-12-06T11:48:58.527Z,1011.36
2018-12-06T11:49:58.537Z,1011.38
2018-12-06T11:50:58.535Z,1011.41
2018-12-06T11:51:58.531Z,1011.41
2018-12-06T11:52:58.549Z,1011.44
2018-12-06T11:53:58.539Z,1011.44
2018-12-06T11:54:58.555Z,1011.41
2018-12-06T11:55:58.584Z,1011.41
2018-12-06T11:56:58.567Z,1011.45
2018-12-06T11:57:58.563Z,1011.43
2018-12-06T11:58:58.571Z,1011.41
2018-12-06T11:59:58.713Z,1011.39
2018-12-06T12:00:58.619Z,1011.38
2018-12-06T12:01:58.591Z,1011.36
2018-12-06T12:02:58.587Z,1011.35
2018-12-06T12:03:58.784Z,1011.41
2018-12-06T12:04:58.593Z,1011.40
2018-12-06T12:05:58.895Z,1011.40